sensor_id;sensor_type;location;lat;lon;timestamp;P1;durP1;ratioP1;P2;durP2;ratioP2
55545;SDS011;44768;50.298;127.520;2022-09-01T00:00:10;6.78;;;0.80;;
55545;SDS011;44768;50.298;127.520;2022-09-01T00:05:13;2.20;;;0.70;;
55545;SDS011;44768;50.298;127.520;2022-09-01T00:10:14;10.10;;;1.23;;
55545;SDS011;44768;50.298;127.520;2022-09-01T00:15:16;9.32;;;1.17;;
55545;SDS011;44768;50.298;127.520;2022-09-01T00:20:17;12.00;;;1.50;;
55545;SDS011;44768;50.298;127.520;2022-09-01T00:25:19;7.43;;;0.77;;
55545;SDS011;44768;50.298;127.520;2022-09-01T00:30:21;4.35;;;0.80;;
55545;SDS011;44768;50.298;127.520;2022-09-01T00:35:22;7.45;;;0.70;;
55545;SDS011;44768;50.298;127.520;2022-09-01T00:40:24;7.90;;;1.38;;
55545;SDS011;44768;50.298;127.520;2022-09-01T00:45:25;8.23;;;1.20;;
55545;SDS011;44768;50.298;127.520;2022-09-01T00:55:28;18.55;;;1.10;;
55545;SDS011;44768;50.298;127.520;2022-09-01T01:00:32;6.00;;;0.82;;
55545;SDS011;44768;50.298;127.520;2022-09-01T01:05:36;7.57;;;0.90;;
55545;SDS011;44768;50.298;127.520;2022-09-01T01:10:40;4.18;;;0.70;;
55545;SDS011;44768;50.298;127.520;2022-09-01T01:15:42;14.32;;;2.42;;
55545;SDS011;44768;50.298;127.520;2022-09-01T01:20:46;19.27;;;1.00;;
55545;SDS011;44768;50.298;127.520;2022-09-01T01:26:08;3.08;;;1.25;;
55545;SDS011;44768;50.298;127.520;2022-09-01T01:31:17;3.08;;;1.05;;
55545;SDS011;44768;50.298;127.520;2022-09-01T01:36:24;2.35;;;0.55;;
55545;SDS011;44768;50.298;127.520;2022-09-01T01:41:33;4.38;;;0.80;;
55545;SDS011;44768;50.298;127.520;2022-09-01T01:46:40;19.98;;;1.35;;
55545;SDS011;44768;50.298;127.520;2022-09-01T01:51:42;8.85;;;1.20;;
55545;SDS011;44768;50.298;127.520;2022-09-01T01:56:44;7.88;;;0.68;;
55545;SDS011;44768;50.298;127.520;2022-09-01T02:01:46;6.30;;;1.13;;
55545;SDS011;44768;50.298;127.520;2022-09-01T02:06:49;8.40;;;0.70;;
55545;SDS011;44768;50.298;127.520;2022-09-01T02:11:51;17.77;;;1.30;;
55545;SDS011;44768;50.298;127.520;2022-09-01T02:16:56;4.75;;;0.75;;
55545;SDS011;44768;50.298;127.520;2022-09-01T02:21:58;3.78;;;0.65;;
55545;SDS011;44768;50.298;127.520;2022-09-01T02:27:00;5.30;;;0.57;;
55545;SDS011;44768;50.298;127.520;2022-09-01T02:32:02;8.88;;;0.90;;
55545;SDS011;44768;50.298;127.520;2022-09-01T02:37:03;1.10;;;0.60;;
55545;SDS011;44768;50.298;127.520;2022-09-01T02:42:05;16.02;;;1.02;;
55545;SDS011;44768;50.298;127.520;2022-09-01T02:47:08;13.30;;;0.90;;
55545;SDS011;44768;50.298;127.520;2022-09-01T02:57:10;13.43;;;1.05;;
55545;SDS011;44768;50.298;127.520;2022-09-01T03:02:12;17.33;;;1.35;;
55545;SDS011;44768;50.298;127.520;2022-09-01T03:07:14;7.82;;;0.98;;
55545;SDS011;44768;50.298;127.520;2022-09-01T03:12:18;16.40;;;1.08;;
55545;SDS011;44768;50.298;127.520;2022-09-01T03:17:19;3.70;;;0.80;;
55545;SDS011;44768;50.298;127.520;2022-09-01T03:22:21;6.72;;;0.70;;
55545;SDS011;44768;50.298;127.520;2022-09-01T03:27:23;8.57;;;0.85;;
55545;SDS011;44768;50.298;127.520;2022-09-01T03:32:24;6.63;;;0.77;;
55545;SDS011;44768;50.298;127.520;2022-09-01T03:37:25;23.08;;;1.30;;
55545;SDS011;44768;50.298;127.520;2022-09-01T03:42:26;8.73;;;0.85;;
55545;SDS011;44768;50.298;127.520;2022-09-01T03:47:30;3.55;;;1.27;;
55545;SDS011;44768;50.298;127.520;2022-09-01T03:52:33;4.22;;;0.80;;
55545;SDS011;44768;50.298;127.520;2022-09-01T04:02:40;5.75;;;0.77;;
55545;SDS011;44768;50.298;127.520;2022-09-01T04:07:42;7.05;;;0.80;;
55545;SDS011;44768;50.298;127.520;2022-09-01T04:12:45;13.52;;;0.90;;
55545;SDS011;44768;50.298;127.520;2022-09-01T04:23:06;5.35;;;0.80;;
55545;SDS011;44768;50.298;127.520;2022-09-01T04:28:10;1.40;;;0.52;;
55545;SDS011;44768;50.298;127.520;2022-09-01T04:33:26;21.75;;;2.08;;
55545;SDS011;44768;50.298;127.520;2022-09-01T04:38:31;1.83;;;0.50;;
55545;SDS011;44768;50.298;127.520;2022-09-01T04:43:37;2.30;;;0.65;;
55545;SDS011;44768;50.298;127.520;2022-09-01T04:48:39;22.67;;;1.20;;
55545;SDS011;44768;50.298;127.520;2022-09-01T04:53:42;17.25;;;1.20;;
55545;SDS011;44768;50.298;127.520;2022-09-01T04:58:48;14.30;;;1.02;;
55545;SDS011;44768;50.298;127.520;2022-09-01T05:03:50;15.30;;;1.00;;
55545;SDS011;44768;50.298;127.520;2022-09-01T05:09:01;8.02;;;1.00;;
55545;SDS011;44768;50.298;127.520;2022-09-01T05:14:03;10.38;;;1.02;;
55545;SDS011;44768;50.298;127.520;2022-09-01T05:19:04;5.60;;;0.88;;
55545;SDS011;44768;50.298;127.520;2022-09-01T05:24:06;12.38;;;0.77;;
55545;SDS011;44768;50.298;127.520;2022-09-01T05:29:08;12.40;;;1.33;;
55545;SDS011;44768;50.298;127.520;2022-09-01T05:34:17;11.48;;;1.45;;
55545;SDS011;44768;50.298;127.520;2022-09-01T05:39:26;7.35;;;1.23;;
55545;SDS011;44768;50.298;127.520;2022-09-01T05:44:28;9.38;;;0.90;;
55545;SDS011;44768;50.298;127.520;2022-09-01T05:49:30;3.58;;;0.70;;
55545;SDS011;44768;50.298;127.520;2022-09-01T05:54:32;9.60;;;1.00;;
55545;SDS011;44768;50.298;127.520;2022-09-01T05:59:34;6.70;;;0.90;;
55545;SDS011;44768;50.298;127.520;2022-09-01T06:04:36;7.03;;;0.90;;
55545;SDS011;44768;50.298;127.520;2022-09-01T06:09:45;2.90;;;0.60;;
55545;SDS011;44768;50.298;127.520;2022-09-01T06:14:46;14.63;;;1.08;;
55545;SDS011;44768;50.298;127.520;2022-09-01T06:19:48;11.20;;;1.23;;
55545;SDS011;44768;50.298;127.520;2022-09-01T06:29:51;10.25;;;0.77;;
55545;SDS011;44768;50.298;127.520;2022-09-01T06:34:56;10.45;;;1.23;;
55545;SDS011;44768;50.298;127.520;2022-09-01T06:40:00;7.85;;;1.20;;
55545;SDS011;44768;50.298;127.520;2022-09-01T06:45:02;5.95;;;1.10;;
55545;SDS011;44768;50.298;127.520;2022-09-01T06:50:04;4.15;;;0.70;;
55545;SDS011;44768;50.298;127.520;2022-09-01T06:55:09;23.77;;;1.40;;
55545;SDS011;44768;50.298;127.520;2022-09-01T07:00:12;7.85;;;1.20;;
55545;SDS011;44768;50.298;127.520;2022-09-01T07:05:21;3.80;;;1.00;;
55545;SDS011;44768;50.298;127.520;2022-09-01T07:10:24;9.18;;;0.95;;
55545;SDS011;44768;50.298;127.520;2022-09-01T07:15:25;8.65;;;0.80;;
55545;SDS011;44768;50.298;127.520;2022-09-01T07:20:27;1.58;;;0.60;;
55545;SDS011;44768;50.298;127.520;2022-09-01T07:25:40;3.05;;;0.40;;
55545;SDS011;44768;50.298;127.520;2022-09-01T07:30:42;12.75;;;1.50;;
55545;SDS011;44768;50.298;127.520;2022-09-01T07:35:45;18.65;;;1.50;;
55545;SDS011;44768;50.298;127.520;2022-09-01T07:40:47;5.25;;;1.10;;
55545;SDS011;44768;50.298;127.520;2022-09-01T07:45:50;22.17;;;1.70;;
55545;SDS011;44768;50.298;127.520;2022-09-01T07:50:53;3.72;;;1.20;;
55545;SDS011;44768;50.298;127.520;2022-09-01T07:55:56;3.30;;;0.60;;
55545;SDS011;44768;50.298;127.520;2022-09-01T08:00:58;6.90;;;1.00;;
55545;SDS011;44768;50.298;127.520;2022-09-01T08:06:04;5.60;;;1.00;;
55545;SDS011;44768;50.298;127.520;2022-09-01T08:11:06;17.63;;;1.45;;
55545;SDS011;44768;50.298;127.520;2022-09-01T08:16:09;50.22;;;2.80;;
55545;SDS011;44768;50.298;127.520;2022-09-01T08:21:11;17.35;;;2.00;;
55545;SDS011;44768;50.298;127.520;2022-09-01T08:26:13;18.15;;;1.58;;
55545;SDS011;44768;50.298;127.520;2022-09-01T08:31:16;21.27;;;2.17;;
55545;SDS011;44768;50.298;127.520;2022-09-01T08:36:18;35.72;;;3.20;;
55545;SDS011;44768;50.298;127.520;2022-09-01T08:41:31;36.50;;;2.80;;
55545;SDS011;44768;50.298;127.520;2022-09-01T08:46:38;21.92;;;2.00;;
55545;SDS011;44768;50.298;127.520;2022-09-01T08:51:43;4.60;;;0.95;;
55545;SDS011;44768;50.298;127.520;2022-09-01T08:56:47;28.17;;;2.33;;
55545;SDS011;44768;50.298;127.520;2022-09-01T09:16:58;40.83;;;2.60;;
55545;SDS011;44768;50.298;127.520;2022-09-01T09:27:01;50.28;;;3.08;;
55545;SDS011;44768;50.298;127.520;2022-09-01T09:32:04;46.45;;;3.42;;
55545;SDS011;44768;50.298;127.520;2022-09-01T09:42:17;56.00;;;5.03;;
55545;SDS011;44768;50.298;127.520;2022-09-01T09:47:39;60.25;;;8.93;;
55545;SDS011;44768;50.298;127.520;2022-09-01T09:52:40;55.97;;;6.97;;
55545;SDS011;44768;50.298;127.520;2022-09-01T09:57:47;47.38;;;7.28;;
55545;SDS011;44768;50.298;127.520;2022-09-01T10:02:53;81.03;;;21.02;;
55545;SDS011;44768;50.298;127.520;2022-09-01T10:07:55;50.25;;;16.35;;
55545;SDS011;44768;50.298;127.520;2022-09-01T10:12:57;59.20;;;16.60;;
55545;SDS011;44768;50.298;127.520;2022-09-01T10:18:06;32.50;;;6.10;;
55545;SDS011;44768;50.298;127.520;2022-09-01T10:23:10;35.90;;;7.15;;
55545;SDS011;44768;50.298;127.520;2022-09-01T10:28:14;41.20;;;10.00;;
55545;SDS011;44768;50.298;127.520;2022-09-01T10:33:17;49.75;;;7.85;;
55545;SDS011;44768;50.298;127.520;2022-09-01T10:38:23;63.88;;;15.65;;
55545;SDS011;44768;50.298;127.520;2022-09-01T10:48:28;71.43;;;19.45;;
55545;SDS011;44768;50.298;127.520;2022-09-01T10:58:38;68.38;;;16.08;;
55545;SDS011;44768;50.298;127.520;2022-09-01T11:08:44;93.18;;;15.40;;
55545;SDS011;44768;50.298;127.520;2022-09-01T11:13:56;67.10;;;8.82;;
55545;SDS011;44768;50.298;127.520;2022-09-01T11:19:25;69.07;;;17.75;;
55545;SDS011;44768;50.298;127.520;2022-09-01T11:29:57;61.40;;;7.32;;
55545;SDS011;44768;50.298;127.520;2022-09-01T11:35:22;64.63;;;7.47;;
55545;SDS011;44768;50.298;127.520;2022-09-01T11:40:23;54.33;;;7.17;;
55545;SDS011;44768;50.298;127.520;2022-09-01T11:45:30;60.30;;;8.20;;
55545;SDS011;44768;50.298;127.520;2022-09-01T11:50:34;46.10;;;8.25;;
55545;SDS011;44768;50.298;127.520;2022-09-01T11:55:40;62.13;;;7.82;;
55545;SDS011;44768;50.298;127.520;2022-09-01T12:00:41;47.83;;;5.85;;
55545;SDS011;44768;50.298;127.520;2022-09-01T12:05:42;35.75;;;5.22;;
55545;SDS011;44768;50.298;127.520;2022-09-01T12:10:45;47.45;;;6.20;;
55545;SDS011;44768;50.298;127.520;2022-09-01T12:15:54;38.75;;;5.50;;
55545;SDS011;44768;50.298;127.520;2022-09-01T12:20:56;47.88;;;5.10;;
55545;SDS011;44768;50.298;127.520;2022-09-01T12:26:04;72.45;;;6.40;;
55545;SDS011;44768;50.298;127.520;2022-09-01T12:31:06;62.58;;;6.35;;
55545;SDS011;44768;50.298;127.520;2022-09-01T12:41:23;66.68;;;8.13;;
55545;SDS011;44768;50.298;127.520;2022-09-01T12:46:42;49.30;;;6.97;;
55545;SDS011;44768;50.298;127.520;2022-09-01T12:51:44;74.15;;;10.15;;
55545;SDS011;44768;50.298;127.520;2022-09-01T12:56:48;47.15;;;7.45;;
55545;SDS011;44768;50.298;127.520;2022-09-01T13:01:50;52.50;;;6.85;;
55545;SDS011;44768;50.298;127.520;2022-09-01T13:06:52;118.68;;;54.08;;
55545;SDS011;44768;50.298;127.520;2022-09-01T13:12:07;63.05;;;8.50;;
55545;SDS011;44768;50.298;127.520;2022-09-01T13:17:09;49.22;;;7.55;;
55545;SDS011;44768;50.298;127.520;2022-09-01T13:22:12;42.05;;;7.40;;
55545;SDS011;44768;50.298;127.520;2022-09-01T13:27:14;45.72;;;7.43;;
55545;SDS011;44768;50.298;127.520;2022-09-01T13:32:15;72.60;;;8.52;;
55545;SDS011;44768;50.298;127.520;2022-09-01T13:37:17;50.88;;;7.72;;
55545;SDS011;44768;50.298;127.520;2022-09-01T13:42:19;75.20;;;24.83;;
55545;SDS011;44768;50.298;127.520;2022-09-01T13:47:21;44.60;;;6.88;;
55545;SDS011;44768;50.298;127.520;2022-09-01T13:52:24;63.40;;;9.55;;
55545;SDS011;44768;50.298;127.520;2022-09-01T13:57:25;44.35;;;8.20;;
55545;SDS011;44768;50.298;127.520;2022-09-01T14:02:26;57.80;;;9.02;;
55545;SDS011;44768;50.298;127.520;2022-09-01T14:07:28;79.50;;;11.02;;
55545;SDS011;44768;50.298;127.520;2022-09-01T14:12:30;67.78;;;9.07;;
55545;SDS011;44768;50.298;127.520;2022-09-01T14:22:33;44.75;;;6.88;;
55545;SDS011;44768;50.298;127.520;2022-09-01T14:27:35;44.00;;;7.25;;
55545;SDS011;44768;50.298;127.520;2022-09-01T14:32:36;34.75;;;6.82;;
55545;SDS011;44768;50.298;127.520;2022-09-01T14:42:40;50.17;;;6.13;;
55545;SDS011;44768;50.298;127.520;2022-09-01T14:47:44;33.92;;;5.90;;
55545;SDS011;44768;50.298;127.520;2022-09-01T14:52:47;45.53;;;6.20;;
55545;SDS011;44768;50.298;127.520;2022-09-01T14:57:49;42.25;;;6.75;;
55545;SDS011;44768;50.298;127.520;2022-09-01T15:02:51;39.20;;;6.70;;
55545;SDS011;44768;50.298;127.520;2022-09-01T15:12:54;53.05;;;6.20;;
55545;SDS011;44768;50.298;127.520;2022-09-01T15:17:56;45.60;;;5.85;;
55545;SDS011;44768;50.298;127.520;2022-09-01T15:22:57;35.78;;;5.70;;
55545;SDS011;44768;50.298;127.520;2022-09-01T15:27:58;30.17;;;5.30;;
55545;SDS011;44768;50.298;127.520;2022-09-01T15:33:00;29.45;;;5.82;;
55545;SDS011;44768;50.298;127.520;2022-09-01T15:38:01;33.45;;;5.78;;
55545;SDS011;44768;50.298;127.520;2022-09-01T15:48:04;36.55;;;6.38;;
55545;SDS011;44768;50.298;127.520;2022-09-01T15:53:06;36.45;;;6.18;;
55545;SDS011;44768;50.298;127.520;2022-09-01T15:58:09;44.80;;;9.63;;
55545;SDS011;44768;50.298;127.520;2022-09-01T16:03:10;36.03;;;7.10;;
55545;SDS011;44768;50.298;127.520;2022-09-01T16:08:12;37.65;;;6.55;;
55545;SDS011;44768;50.298;127.520;2022-09-01T16:13:13;38.22;;;6.50;;
55545;SDS011;44768;50.298;127.520;2022-09-01T16:23:20;33.30;;;6.20;;
55545;SDS011;44768;50.298;127.520;2022-09-01T16:28:26;38.85;;;6.32;;
55545;SDS011;44768;50.298;127.520;2022-09-01T16:33:28;34.05;;;6.47;;
55545;SDS011;44768;50.298;127.520;2022-09-01T16:38:33;44.22;;;9.85;;
55545;SDS011;44768;50.298;127.520;2022-09-01T16:53:50;34.25;;;6.68;;
55545;SDS011;44768;50.298;127.520;2022-09-01T17:14:30;41.30;;;5.65;;
55545;SDS011;44768;50.298;127.520;2022-09-01T17:19:33;38.47;;;6.07;;
55545;SDS011;44768;50.298;127.520;2022-09-01T17:24:52;29.92;;;5.70;;
55545;SDS011;44768;50.298;127.520;2022-09-01T17:29:55;34.72;;;4.50;;
55545;SDS011;44768;50.298;127.520;2022-09-01T18:00:24;31.15;;;4.05;;
55545;SDS011;44768;50.298;127.520;2022-09-01T18:05:26;29.10;;;3.88;;
55545;SDS011;44768;50.298;127.520;2022-09-01T18:10:46;21.05;;;4.15;;
55545;SDS011;44768;50.298;127.520;2022-09-01T18:15:51;27.67;;;3.92;;
55545;SDS011;44768;50.298;127.520;2022-09-01T18:21:07;25.42;;;4.13;;
55545;SDS011;44768;50.298;127.520;2022-09-01T18:36:15;20.27;;;3.40;;
55545;SDS011;44768;50.298;127.520;2022-09-01T18:41:26;21.13;;;3.28;;
55545;SDS011;44768;50.298;127.520;2022-09-01T18:46:37;21.10;;;3.55;;
55545;SDS011;44768;50.298;127.520;2022-09-01T18:51:51;22.90;;;3.10;;
55545;SDS011;44768;50.298;127.520;2022-09-01T18:57:39;18.67;;;3.00;;
55545;SDS011;44768;50.298;127.520;2022-09-01T19:07:39;12.43;;;2.35;;
55545;SDS011;44768;50.298;127.520;2022-09-01T19:22:56;15.30;;;2.78;;
55545;SDS011;44768;50.298;127.520;2022-09-01T19:33:08;10.32;;;2.78;;
55545;SDS011;44768;50.298;127.520;2022-09-01T19:38:12;21.63;;;3.20;;
55545;SDS011;44768;50.298;127.520;2022-09-01T19:43:17;15.80;;;2.70;;
55545;SDS011;44768;50.298;127.520;2022-09-01T19:58:48;12.80;;;2.83;;
55545;SDS011;44768;50.298;127.520;2022-09-01T20:03:53;14.38;;;2.88;;
55545;SDS011;44768;50.298;127.520;2022-09-01T20:08:59;21.00;;;3.97;;
55545;SDS011;44768;50.298;127.520;2022-09-01T20:24:36;14.23;;;6.85;;
55545;SDS011;44768;50.298;127.520;2022-09-01T20:29:48;20.30;;;7.47;;
55545;SDS011;44768;50.298;127.520;2022-09-01T20:34:50;17.45;;;7.65;;
55545;SDS011;44768;50.298;127.520;2022-09-01T20:39:57;28.00;;;7.93;;
55545;SDS011;44768;50.298;127.520;2022-09-01T20:45:03;20.88;;;7.30;;
55545;SDS011;44768;50.298;127.520;2022-09-01T20:50:08;19.95;;;6.80;;
55545;SDS011;44768;50.298;127.520;2022-09-01T20:55:15;20.05;;;5.95;;
55545;SDS011;44768;50.298;127.520;2022-09-01T21:00:19;16.40;;;3.65;;
55545;SDS011;44768;50.298;127.520;2022-09-01T21:05:39;13.00;;;3.88;;
55545;SDS011;44768;50.298;127.520;2022-09-01T21:10:54;16.80;;;4.40;;
55545;SDS011;44768;50.298;127.520;2022-09-01T21:21:05;21.52;;;4.78;;
55545;SDS011;44768;50.298;127.520;2022-09-01T21:26:08;23.42;;;6.00;;
55545;SDS011;44768;50.298;127.520;2022-09-01T21:31:09;28.92;;;5.65;;
55545;SDS011;44768;50.298;127.520;2022-09-01T21:36:10;20.30;;;4.75;;
55545;SDS011;44768;50.298;127.520;2022-09-01T21:41:12;28.13;;;6.82;;
55545;SDS011;44768;50.298;127.520;2022-09-01T21:46:13;22.60;;;6.47;;
55545;SDS011;44768;50.298;127.520;2022-09-01T21:51:15;27.80;;;6.35;;
55545;SDS011;44768;50.298;127.520;2022-09-01T21:56:17;22.53;;;5.80;;
55545;SDS011;44768;50.298;127.520;2022-09-01T22:06:19;42.10;;;7.38;;
55545;SDS011;44768;50.298;127.520;2022-09-01T22:11:22;33.40;;;6.50;;
55545;SDS011;44768;50.298;127.520;2022-09-01T22:16:24;45.05;;;6.80;;
55545;SDS011;44768;50.298;127.520;2022-09-01T22:21:25;32.00;;;6.88;;
55545;SDS011;44768;50.298;127.520;2022-09-01T22:26:27;34.47;;;7.10;;
55545;SDS011;44768;50.298;127.520;2022-09-01T22:31:29;43.80;;;7.30;;
55545;SDS011;44768;50.298;127.520;2022-09-01T22:36:32;48.47;;;9.18;;
55545;SDS011;44768;50.298;127.520;2022-09-01T22:41:35;38.45;;;8.55;;
55545;SDS011;44768;50.298;127.520;2022-09-01T22:46:36;36.58;;;8.23;;
55545;SDS011;44768;50.298;127.520;2022-09-01T22:51:39;56.40;;;8.90;;
55545;SDS011;44768;50.298;127.520;2022-09-01T22:56:41;41.47;;;8.13;;
55545;SDS011;44768;50.298;127.520;2022-09-01T23:01:44;42.50;;;9.25;;
55545;SDS011;44768;50.298;127.520;2022-09-01T23:06:46;60.33;;;8.82;;
55545;SDS011;44768;50.298;127.520;2022-09-01T23:11:49;51.92;;;8.38;;
55545;SDS011;44768;50.298;127.520;2022-09-01T23:21:52;70.22;;;10.30;;
55545;SDS011;44768;50.298;127.520;2022-09-01T23:26:53;61.42;;;9.77;;
55545;SDS011;44768;50.298;127.520;2022-09-01T23:36:56;32.72;;;4.22;;
55545;SDS011;44768;50.298;127.520;2022-09-01T23:41:57;23.33;;;4.15;;
55545;SDS011;44768;50.298;127.520;2022-09-01T23:46:59;27.50;;;3.75;;
55545;SDS011;44768;50.298;127.520;2022-09-01T23:52:00;22.58;;;3.25;;
55545;SDS011;44768;50.298;127.520;2022-09-01T23:57:02;7.75;;;2.22;;
